Time;durP1;ratioP1;P1;durP2;ratioP2;P2;SDS_P1;SDS_P2;PMS_P1;PMS_P2;Temp;Humidity;BMP_temperature;BMP_pressure;BME280_temperature;BME280_humidity;BME280_pressure;Samples;Min_cycle;Max_cycle;Signal;HPM_P1;HPM_P2
2023/05/11 00:00:28;;;;;;;5.47;3.30;;;;;;;;;;5019223;28;20564;-82
2023/05/11 00:02:53;;;;;;;5.53;3.30;;;;;;;;;;5032084;28;20072;-82
2023/05/11 00:05:18;;;;;;;6.05;3.85;;;;;;;;;;5031869;28;20033;-81
2023/05/11 00:07:44;;;;;;;5.95;3.75;;;;;;;;;;5033914;28;20477;-81
2023/05/11 00:10:10;;;;;;;5.45;3.63;;;;;;;;;;5031034;28;20037;-81
2023/05/11 00:12:35;;;;;;;5.90;3.63;;;;;;;;;;5026836;28;20030;-82
2023/05/11 00:15:01;;;;;;;5.63;3.72;;;;;;;;;;5031754;28;20037;-82
2023/05/11 00:17:27;;;;;;;5.75;3.55;;;;;;;;;;5030164;28;21173;-81
2023/05/11 00:19:52;;;;;;;4.93;3.10;;;;;;;;;;5033491;28;20033;-82
2023/05/11 00:22:17;;;;;;;6.22;3.40;;;;;;;;;;5039470;28;20598;-82
2023/05/11 00:24:43;;;;;;;7.55;4.28;;;;;;;;;;5024332;28;20033;-82
2023/05/11 00:27:08;;;;;;;6.13;3.70;;;;;;;;;;5028246;28;20116;-81
2023/05/11 00:29:33;;;;;;;5.68;3.63;;;;;;;;;;5030538;28;20041;-82
2023/05/11 00:31:59;;;;;;;6.88;3.70;;;;;;;;;;5032395;28;20095;-81
2023/05/11 00:34:24;;;;;;;8.10;4.43;;;;;;;;;;5030134;28;20435;-82
2023/05/11 00:36:50;;;;;;;6.93;3.75;;;;;;;;;;5029440;28;20033;-82
2023/05/11 00:39:16;;;;;;;5.55;3.80;;;;;;;;;;5031215;28;20064;-82
2023/05/11 00:41:41;;;;;;;6.03;3.88;;;;;;;;;;5029807;28;20037;-82
2023/05/11 00:44:07;;;;;;;6.55;3.55;;;;;;;;;;5029382;28;20128;-79
2023/05/11 00:46:32;;;;;;;5.38;3.40;;;;;;;;;;5030325;28;20052;-82
2023/05/11 00:48:58;;;;;;;7.65;3.67;;;;;;;;;;5030086;28;20033;-82
2023/05/11 00:51:23;;;;;;;6.00;3.33;;;;;;;;;;5032217;28;20044;-82
2023/05/11 00:53:49;;;;;;;5.95;3.92;;;;;;;;;;5035025;28;20048;-82
2023/05/11 00:56:15;;;;;;;5.97;3.83;;;;;;;;;;5031661;28;20036;-82
2023/05/11 00:58:40;;;;;;;8.57;4.10;;;;;;;;;;5034623;28;20063;-81
2023/05/11 01:01:06;;;;;;;6.63;4.10;;;;;;;;;;5032783;28;20140;-82
2023/05/11 01:03:32;;;;;;;5.65;3.70;;;;;;;;;;5039983;28;20052;-81
2023/05/11 01:06:17;;;;;;;5.95;3.75;;;;;;;;;;5001361;28;20044;-82
2023/05/11 01:08:55;;;;;;;5.93;3.90;;;;;;;;;;5038751;28;20109;-81
2023/05/11 01:11:42;;;;;;;6.05;3.83;;;;;;;;;;5031352;28;20064;-82
2023/05/11 01:14:20;;;;;;;7.57;4.20;;;;;;;;;;5031939;28;20090;-80
2023/05/11 01:16:48;;;;;;;6.00;3.90;;;;;;;;;;5031512;28;20056;-81
2023/05/11 01:19:13;;;;;;;6.68;4.00;;;;;;;;;;5035828;28;20033;-82
2023/05/11 01:21:39;;;;;;;5.97;3.88;;;;;;;;;;5027005;28;20044;-80
2023/05/11 01:24:36;;;;;;;6.18;3.92;;;;;;;;;;5033832;28;20135;-82
2023/05/11 01:27:05;;;;;;;6.15;4.40;;;;;;;;;;5033426;28;20113;-82
2023/05/11 01:30:09;;;;;;;7.55;4.75;;;;;;;;;;5035404;28;20036;-82
2023/05/11 01:32:35;;;;;;;6.80;3.83;;;;;;;;;;5032026;28;20030;-82
2023/05/11 01:35:10;;;;;;;5.88;3.47;;;;;;;;;;5034140;28;20033;-81
2023/05/11 01:37:37;;;;;;;6.40;4.00;;;;;;;;;;5042598;28;20037;-82
2023/05/11 01:40:11;;;;;;;8.02;3.88;;;;;;;;;;5037867;28;20041;-82
2023/05/11 01:42:55;;;;;;;6.38;4.00;;;;;;;;;;5034416;28;20028;-82
2023/05/11 01:45:21;;;;;;;6.38;4.18;;;;;;;;;;5041679;28;20040;-81
2023/05/11 01:47:49;;;;;;;7.57;3.95;;;;;;;;;;5033010;28;20033;-82
2023/05/11 01:50:16;;;;;;;7.40;4.40;;;;;;;;;;5038089;28;20036;-81
2023/05/11 01:52:42;;;;;;;6.47;4.40;;;;;;;;;;5037686;28;20042;-81
2023/05/11 01:55:08;;;;;;;6.20;3.75;;;;;;;;;;5032841;28;20037;-81
2023/05/11 01:57:36;;;;;;;8.88;4.40;;;;;;;;;;5035551;28;20043;-82
2023/05/11 02:00:02;;;;;;;7.55;4.47;;;;;;;;;;5026136;28;20042;-82
2023/05/11 02:02:28;;;;;;;7.63;4.85;;;;;;;;;;5032386;28;20103;-82
2023/05/11 02:04:54;;;;;;;8.30;5.40;;;;;;;;;;5032336;28;20091;-82
2023/05/11 02:07:21;;;;;;;8.93;6.03;;;;;;;;;;5033550;28;20033;-82
2023/05/11 02:09:47;;;;;;;9.70;6.30;;;;;;;;;;5033933;28;20090;-81
2023/05/11 02:12:15;;;;;;;9.15;6.25;;;;;;;;;;5014872;28;20452;-81
2023/05/11 02:14:41;;;;;;;10.10;6.05;;;;;;;;;;5034802;28;20392;-82
2023/05/11 02:17:07;;;;;;;10.63;7.15;;;;;;;;;;5019936;28;20120;-82
2023/05/11 02:19:35;;;;;;;11.27;6.85;;;;;;;;;;5038875;28;20781;-82
2023/05/11 02:22:00;;;;;;;10.38;7.55;;;;;;;;;;5023226;28;20037;-81
2023/05/11 02:24:27;;;;;;;11.27;7.10;;;;;;;;;;5031885;28;20452;-81
2023/05/11 02:26:52;;;;;;;10.68;6.90;;;;;;;;;;5032738;28;20044;-80
2023/05/11 02:29:18;;;;;;;10.27;6.97;;;;;;;;;;5020751;28;20056;-80
2023/05/11 02:31:46;;;;;;;10.43;6.85;;;;;;;;;;5034373;28;20039;-80
2023/05/11 02:34:22;;;;;;;10.88;7.22;;;;;;;;;;5032564;28;20550;-80
2023/05/11 02:36:48;;;;;;;12.73;6.97;;;;;;;;;;5032774;28;20040;-80
2023/05/11 02:39:18;;;;;;;13.05;8.18;;;;;;;;;;5023991;28;20056;-80
2023/05/11 02:41:44;;;;;;;11.32;7.85;;;;;;;;;;5030547;28;20037;-81
2023/05/11 02:44:13;;;;;;;12.45;8.27;;;;;;;;;;5029890;28;20044;-81
2023/05/11 02:46:39;;;;;;;11.68;7.85;;;;;;;;;;5032270;28;20065;-80
2023/05/11 02:49:07;;;;;;;11.85;7.90;;;;;;;;;;5033971;28;20511;-81
2023/05/11 02:51:36;;;;;;;10.27;7.50;;;;;;;;;;5029575;28;20506;-81
2023/05/11 02:54:02;;;;;;;17.50;8.25;;;;;;;;;;5036989;28;20024;-81
2023/05/11 02:56:28;;;;;;;10.68;6.95;;;;;;;;;;5030543;28;20567;-81
2023/05/11 02:58:53;;;;;;;13.27;8.07;;;;;;;;;;5030826;28;20095;-80
2023/05/11 03:01:19;;;;;;;11.82;7.72;;;;;;;;;;5023043;28;20037;-79
2023/05/11 03:03:45;;;;;;;9.85;6.60;;;;;;;;;;5025031;28;20063;-79
2023/05/11 03:06:10;;;;;;;10.25;7.00;;;;;;;;;;5022992;28;20107;-78
2023/05/11 03:08:36;;;;;;;11.32;7.72;;;;;;;;;;5031097;28;20057;-79
2023/05/11 03:11:02;;;;;;;9.98;6.63;;;;;;;;;;5031438;28;20122;-79
2023/05/11 03:13:28;;;;;;;10.10;6.88;;;;;;;;;;5022104;28;20041;-79
2023/05/11 03:15:54;;;;;;;11.18;7.32;;;;;;;;;;5024198;28;20094;-79
2023/05/11 03:18:21;;;;;;;9.95;6.90;;;;;;;;;;5031719;28;20037;-79
2023/05/11 03:20:47;;;;;;;10.85;7.38;;;;;;;;;;5023722;28;20025;-79
2023/05/11 03:23:14;;;;;;;11.73;7.55;;;;;;;;;;5031036;28;20052;-79
2023/05/11 03:25:42;;;;;;;10.48;7.57;;;;;;;;;;5032885;28;20400;-78
2023/05/11 03:28:07;;;;;;;;;;;;;;;;;;5019712;28;20493;-78
2023/05/11 03:30:32;;;;;;;9.93;6.90;;;;;;;;;;5032546;28;19924;-79
2023/05/11 03:32:58;;;;;;;11.07;6.68;;;;;;;;;;5032122;28;20271;-79
2023/05/11 03:35:24;;;;;;;9.88;6.43;;;;;;;;;;5031523;28;20068;-79
2023/05/11 03:37:51;;;;;;;10.90;7.10;;;;;;;;;;5033244;28;20487;-79
2023/05/11 03:40:18;;;;;;;9.80;7.35;;;;;;;;;;5030473;28;20033;-78
2023/05/11 03:42:44;;;;;;;10.05;6.80;;;;;;;;;;5032458;28;20447;-79
2023/05/11 03:45:12;;;;;;;11.98;7.40;;;;;;;;;;5034764;28;20463;-79
2023/05/11 03:47:38;;;;;;;9.98;6.97;;;;;;;;;;5034521;28;20431;-78
2023/05/11 03:50:04;;;;;;;10.98;7.20;;;;;;;;;;5024672;28;20048;-79
2023/05/11 03:52:30;;;;;;;10.50;6.45;;;;;;;;;;5015415;28;20111;-79
2023/05/11 03:54:55;;;;;;;8.93;6.38;;;;;;;;;;5030810;28;20037;-79
2023/05/11 03:57:24;;;;;;;8.90;6.45;;;;;;;;;;5031226;28;20083;-79
2023/05/11 03:59:50;;;;;;;10.55;6.75;;;;;;;;;;5015586;28;20094;-78
2023/05/11 04:02:15;;;;;;;8.82;6.22;;;;;;;;;;5033744;28;20030;-79
2023/05/11 04:04:41;;;;;;;9.05;6.32;;;;;;;;;;5031080;28;20116;-79
2023/05/11 04:07:06;;;;;;;9.00;6.22;;;;;;;;;;5038978;28;20432;-79
2023/05/11 04:09:32;;;;;;;9.25;6.53;;;;;;;;;;5033791;28;20516;-79
2023/05/11 04:11:58;;;;;;;8.80;6.03;;;;;;;;;;5033690;28;20037;-79
2023/05/11 04:14:23;;;;;;;9.13;6.25;;;;;;;;;;5032990;28;20041;-79
2023/05/11 04:16:49;;;;;;;8.52;5.50;;;;;;;;;;5031154;28;20369;-80
2023/05/11 04:19:15;;;;;;;8.20;5.78;;;;;;;;;;5031844;28;20033;-78
2023/05/11 04:21:40;;;;;;;8.38;5.97;;;;;;;;;;5032546;28;20511;-79
2023/05/11 04:24:06;;;;;;;8.50;5.65;;;;;;;;;;5032168;28;20037;-79
2023/05/11 04:26:31;;;;;;;7.35;5.88;;;;;;;;;;5031279;28;20849;-79
2023/05/11 04:28:57;;;;;;;7.50;5.30;;;;;;;;;;5031169;28;20038;-81
2023/05/11 04:31:22;;;;;;;8.25;5.35;;;;;;;;;;5029101;28;20490;-81
2023/05/11 04:33:48;;;;;;;9.25;5.22;;;;;;;;;;5029782;28;20040;-81
2023/05/11 04:36:13;;;;;;;9.43;5.63;;;;;;;;;;5029657;28;20476;-80
2023/05/11 04:38:39;;;;;;;7.43;5.38;;;;;;;;;;5016470;28;20562;-81
2023/05/11 04:41:05;;;;;;;7.88;5.25;;;;;;;;;;5031857;28;20366;-80
2023/05/11 04:43:31;;;;;;;6.70;4.65;;;;;;;;;;5030966;28;20045;-80
2023/05/11 04:45:58;;;;;;;8.27;5.10;;;;;;;;;;5031882;28;20032;-81
2023/05/11 04:48:23;;;;;;;6.40;4.90;;;;;;;;;;5029085;28;20049;-80
2023/05/11 04:50:48;;;;;;;8.57;4.63;;;;;;;;;;5031030;28;20272;-80
2023/05/11 04:53:14;;;;;;;7.07;4.63;;;;;;;;;;5026629;28;20038;-80
2023/05/11 04:55:39;;;;;;;6.80;4.50;;;;;;;;;;5036323;28;20874;-81
2023/05/11 04:58:05;;;;;;;6.75;4.80;;;;;;;;;;5032334;28;20033;-81
2023/05/11 05:00:30;;;;;;;7.38;4.22;;;;;;;;;;5034600;28;20408;-81
2023/05/11 05:02:56;;;;;;;7.30;4.70;;;;;;;;;;5021342;28;20053;-81
2023/05/11 05:05:21;;;;;;;6.53;4.63;;;;;;;;;;5033806;28;20456;-81
2023/05/11 05:07:47;;;;;;;7.28;4.40;;;;;;;;;;5035788;28;20033;-80
2023/05/11 05:10:12;;;;;;;8.10;4.05;;;;;;;;;;5033570;28;20040;-80
2023/05/11 05:12:38;;;;;;;6.55;4.50;;;;;;;;;;5032210;28;20559;-79
2023/05/11 05:15:04;;;;;;;6.18;4.38;;;;;;;;;;5037058;28;20029;-80
2023/05/11 05:17:30;;;;;;;5.63;3.88;;;;;;;;;;5033659;28;20036;-80
2023/05/11 05:19:56;;;;;;;6.95;4.18;;;;;;;;;;5021536;28;20041;-80
2023/05/11 05:22:23;;;;;;;6.47;3.78;;;;;;;;;;5033632;28;20117;-80
2023/05/11 05:24:48;;;;;;;7.00;4.10;;;;;;;;;;5036853;28;20479;-82
2023/05/11 05:27:13;;;;;;;6.15;4.00;;;;;;;;;;5030001;28;20041;-80
2023/05/11 05:29:39;;;;;;;19.38;4.50;;;;;;;;;;5034702;28;20437;-80
2023/05/11 05:32:04;;;;;;;6.95;4.18;;;;;;;;;;5037070;28;20163;-81
2023/05/11 05:34:30;;;;;;;7.00;3.80;;;;;;;;;;5031351;28;20033;-80
2023/05/11 05:36:55;;;;;;;7.72;3.85;;;;;;;;;;5035252;28;20172;-79
2023/05/11 05:39:20;;;;;;;6.90;4.00;;;;;;;;;;5032361;28;20347;-80
2023/05/11 05:41:46;;;;;;;5.30;3.53;;;;;;;;;;5021498;28;20029;-80
2023/05/11 05:44:11;;;;;;;6.72;4.15;;;;;;;;;;5032954;28;20033;-80
2023/05/11 05:46:37;;;;;;;5.95;3.75;;;;;;;;;;5033120;28;20048;-80
2023/05/11 05:49:02;;;;;;;6.43;3.65;;;;;;;;;;5021599;28;20099;-80
2023/05/11 05:51:27;;;;;;;7.88;4.00;;;;;;;;;;5037146;28;20053;-81
2023/05/11 05:53:53;;;;;;;6.80;3.70;;;;;;;;;;5022157;28;20038;-80
2023/05/11 05:56:18;;;;;;;7.60;3.90;;;;;;;;;;5032923;28;20034;-79
2023/05/11 05:58:44;;;;;;;7.70;3.60;;;;;;;;;;5026615;28;20036;-79
2023/05/11 06:01:09;;;;;;;5.38;3.63;;;;;;;;;;5025087;28;20048;-80
2023/05/11 06:03:34;;;;;;;6.60;3.65;;;;;;;;;;5031447;28;20860;-80
2023/05/11 06:06:01;;;;;;;7.07;3.72;;;;;;;;;;5031721;28;20061;-80
2023/05/11 06:08:27;;;;;;;5.45;3.45;;;;;;;;;;5033752;28;20523;-80
2023/05/11 06:10:52;;;;;;;5.85;3.20;;;;;;;;;;5032294;28;20045;-79
2023/05/11 06:13:18;;;;;;;5.38;3.75;;;;;;;;;;5034130;28;20033;-79
2023/05/11 06:15:43;;;;;;;5.60;3.45;;;;;;;;;;5033155;28;20086;-79
2023/05/11 06:18:08;;;;;;;5.35;3.42;;;;;;;;;;5036754;28;20041;-79
2023/05/11 06:20:34;;;;;;;5.72;3.50;;;;;;;;;;5042285;28;20033;-81
2023/05/11 06:22:59;;;;;;;5.55;3.30;;;;;;;;;;5033354;28;20037;-80
2023/05/11 06:25:26;;;;;;;6.90;3.45;;;;;;;;;;5033266;28;20119;-79
2023/05/11 06:27:51;;;;;;;4.78;3.40;;;;;;;;;;5036829;28;20060;-79
2023/05/11 06:30:19;;;;;;;6.70;3.10;;;;;;;;;;5033653;28;20064;-79
2023/05/11 06:32:45;;;;;;;11.05;3.28;;;;;;;;;;5018299;28;20052;-79
2023/05/11 06:35:10;;;;;;;6.05;3.15;;;;;;;;;;5032827;28;20037;-79
2023/05/11 06:37:36;;;;;;;7.00;2.80;;;;;;;;;;5017433;28;20033;-79
2023/05/11 06:40:02;;;;;;;5.78;3.00;;;;;;;;;;5034268;28;20039;-80
2023/05/11 06:42:27;;;;;;;5.38;3.05;;;;;;;;;;5032388;28;22213;-79
2023/05/11 06:44:52;;;;;;;5.45;2.72;;;;;;;;;;5031893;28;20038;-80
2023/05/11 06:47:18;;;;;;;6.00;2.97;;;;;;;;;;5041762;28;20029;-79
2023/05/11 06:49:43;;;;;;;5.05;2.75;;;;;;;;;;5032124;28;20110;-79
2023/05/11 06:52:09;;;;;;;4.75;2.58;;;;;;;;;;5032845;28;20052;-79
2023/05/11 06:54:34;;;;;;;4.07;2.40;;;;;;;;;;5035348;28;20051;-79
2023/05/11 06:57:02;;;;;;;5.00;3.20;;;;;;;;;;5021256;28;20083;-79
2023/05/11 06:59:28;;;;;;;7.70;2.67;;;;;;;;;;5035020;28;20903;-79
2023/05/11 07:01:53;;;;;;;9.82;2.65;;;;;;;;;;5023834;28;20116;-79
2023/05/11 07:04:19;;;;;;;4.05;2.40;;;;;;;;;;5033897;28;20248;-79
2023/05/11 07:06:44;;;;;;;5.43;2.40;;;;;;;;;;5038841;28;20045;-81
2023/05/11 07:09:10;;;;;;;5.07;2.28;;;;;;;;;;5018563;28;20441;-80
2023/05/11 07:11:35;;;;;;;3.40;2.20;;;;;;;;;;5032731;28;20037;-81
2023/05/11 07:14:01;;;;;;;4.15;2.28;;;;;;;;;;5038958;28;20037;-80
2023/05/11 07:16:26;;;;;;;4.75;2.30;;;;;;;;;;5031248;28;20114;-80
2023/05/11 07:18:51;;;;;;;5.32;2.45;;;;;;;;;;5031135;28;20357;-81
2023/05/11 07:21:17;;;;;;;3.78;2.35;;;;;;;;;;5032523;28;20564;-80
2023/05/11 07:23:43;;;;;;;4.28;2.20;;;;;;;;;;5033794;28;20107;-80
2023/05/11 07:26:09;;;;;;;4.15;1.92;;;;;;;;;;5031600;28;20041;-78
2023/05/11 07:28:37;;;;;;;3.80;2.05;;;;;;;;;;5040642;28;20497;-78
2023/05/11 07:31:03;;;;;;;4.43;2.22;;;;;;;;;;5030391;28;20539;-79
2023/05/11 07:33:28;;;;;;;4.43;2.10;;;;;;;;;;5031154;28;20033;-79
2023/05/11 07:35:54;;;;;;;3.35;2.20;;;;;;;;;;5031190;28;20033;-78
2023/05/11 07:38:20;;;;;;;4.50;2.10;;;;;;;;;;5023199;28;20041;-79
2023/05/11 07:40:45;;;;;;;3.40;1.80;;;;;;;;;;5030101;28;20112;-78
2023/05/11 07:43:10;;;;;;;4.13;2.00;;;;;;;;;;5032631;28;20116;-78
2023/05/11 07:45:36;;;;;;;3.45;2.03;;;;;;;;;;5033349;28;20033;-81
2023/05/11 07:48:01;;;;;;;3.63;1.80;;;;;;;;;;5033726;28;20325;-80
2023/05/11 07:50:27;;;;;;;4.25;1.98;;;;;;;;;;5031563;28;23454;-81
2023/05/11 07:52:52;;;;;;;3.55;1.77;;;;;;;;;;5016401;28;20079;-80
2023/05/11 07:55:18;;;;;;;2.95;1.73;;;;;;;;;;5029898;28;20515;-80
2023/05/11 07:57:44;;;;;;;4.85;2.72;;;;;;;;;;5031282;28;20053;-79
2023/05/11 08:00:10;;;;;;;4.47;1.70;;;;;;;;;;5022813;28;20443;-80
2023/05/11 08:02:36;;;;;;;4.43;1.67;;;;;;;;;;5035376;28;20037;-78
2023/05/11 08:05:01;;;;;;;2.88;1.60;;;;;;;;;;5018186;28;20556;-79
2023/05/11 08:07:26;;;;;;;3.40;1.75;;;;;;;;;;5030053;28;20037;-79
2023/05/11 08:09:52;;;;;;;2.90;1.63;;;;;;;;;;5019455;28;20038;-79
2023/05/11 08:12:17;;;;;;;3.30;1.85;;;;;;;;;;5021793;28;20075;-79
2023/05/11 08:14:43;;;;;;;3.28;1.80;;;;;;;;;;5014453;28;20116;-79
2023/05/11 08:17:08;;;;;;;3.42;1.60;;;;;;;;;;5031461;28;20052;-78
2023/05/11 08:19:33;;;;;;;3.20;1.65;;;;;;;;;;5023874;28;20530;-80
2023/05/11 08:21:59;;;;;;;3.85;1.75;;;;;;;;;;5015209;28;20048;-81
2023/05/11 08:24:25;;;;;;;4.20;1.92;;;;;;;;;;5033560;28;20448;-79
2023/05/11 08:26:50;;;;;;;3.90;1.70;;;;;;;;;;5033864;28;20047;-79
2023/05/11 08:29:16;;;;;;;3.35;1.95;;;;;;;;;;5033203;28;20034;-79
2023/05/11 08:31:41;;;;;;;3.08;1.60;;;;;;;;;;5035006;28;20127;-79
2023/05/11 08:34:07;;;;;;;4.43;1.80;;;;;;;;;;5019272;28;20044;-80
2023/05/11 08:36:34;;;;;;;3.78;1.80;;;;;;;;;;5023501;28;20042;-79
2023/05/11 08:38:59;;;;;;;2.88;1.73;;;;;;;;;;5022396;28;20033;-79
2023/05/11 08:41:25;;;;;;;5.13;2.00;;;;;;;;;;5031305;28;20451;-79
2023/05/11 08:43:51;;;;;;;2.80;1.60;;;;;;;;;;5032755;28;20037;-79
2023/05/11 08:46:21;;;;;;;5.00;1.77;;;;;;;;;;5022198;28;20072;-79
2023/05/11 08:48:46;;;;;;;2.85;1.58;;;;;;;;;;5040317;28;20479;-79
2023/05/11 08:51:11;;;;;;;3.42;1.55;;;;;;;;;;5034883;28;20029;-78
2023/05/11 08:53:37;;;;;;;3.20;1.40;;;;;;;;;;5035858;28;20459;-79
2023/05/11 08:56:05;;;;;;;3.65;1.60;;;;;;;;;;5035272;28;20398;-79
2023/05/11 08:58:32;;;;;;;4.75;1.45;;;;;;;;;;5036688;28;20029;-79
2023/05/11 09:00:58;;;;;;;4.18;1.58;;;;;;;;;;5033605;28;20041;-79
2023/05/11 09:03:23;;;;;;;3.55;1.60;;;;;;;;;;5037893;28;20469;-79
2023/05/11 09:05:49;;;;;;;3.10;1.80;;;;;;;;;;5034390;28;20038;-79
2023/05/11 09:08:17;;;;;;;3.33;1.55;;;;;;;;;;5036183;28;20485;-79
2023/05/11 09:10:43;;;;;;;3.15;1.60;;;;;;;;;;5031068;28;20033;-79
2023/05/11 09:13:08;;;;;;;3.65;1.75;;;;;;;;;;5039471;28;20090;-78
2023/05/11 09:15:34;;;;;;;3.00;1.38;;;;;;;;;;5033975;28;20513;-79
2023/05/11 09:17:59;;;;;;;9.73;2.17;;;;;;;;;;5034362;28;20094;-80
2023/05/11 09:20:31;;;;;;;3.28;1.52;;;;;;;;;;5034000;28;20041;-78
2023/05/11 09:22:57;;;;;;;3.28;1.50;;;;;;;;;;5021394;28;20493;-79
2023/05/11 09:25:24;;;;;;;3.60;1.75;;;;;;;;;;5034922;28;20037;-78
2023/05/11 09:27:49;;;;;;;2.65;1.30;;;;;;;;;;5033725;28;20047;-79
2023/05/11 09:30:20;;;;;;;2.92;1.30;;;;;;;;;;5033488;28;20030;-79
2023/05/11 09:32:55;;;;;;;2.63;1.40;;;;;;;;;;5035207;28;20041;-78
2023/05/11 09:35:23;;;;;;;3.28;1.50;;;;;;;;;;5025934;28;20505;-79
2023/05/11 09:38:09;;;;;;;2.67;1.40;;;;;;;;;;5048448;28;20132;-79
2023/05/11 09:40:36;;;;;;;3.23;1.40;;;;;;;;;;5032739;28;20087;-78
2023/05/11 09:43:15;;;;;;;3.30;1.55;;;;;;;;;;5033049;28;20548;-79
2023/05/11 09:45:42;;;;;;;2.88;1.30;;;;;;;;;;5036953;28;20041;-78
2023/05/11 09:48:23;;;;;;;2.45;1.27;;;;;;;;;;5042872;28;20034;-79
2023/05/11 09:50:51;;;;;;;3.55;1.40;;;;;;;;;;5033714;28;20056;-79
2023/05/11 09:53:17;;;;;;;3.22;1.30;;;;;;;;;;5042475;28;20029;-79
2023/05/11 09:55:54;;;;;;;3.08;1.17;;;;;;;;;;5032955;28;20034;-79
2023/05/11 09:58:20;;;;;;;5.75;1.42;;;;;;;;;;5024552;28;20045;-79
2023/05/11 10:00:52;;;;;;;3.80;1.35;;;;;;;;;;5037321;28;20102;-79
2023/05/11 10:03:18;;;;;;;2.15;1.00;;;;;;;;;;5033060;28;20045;-79
2023/05/11 10:06:04;;;;;;;2.20;1.00;;;;;;;;;;5032604;28;20034;-79
2023/05/11 10:08:33;;;;;;;2.20;1.17;;;;;;;;;;5033382;28;20098;-79
2023/05/11 10:11:00;;;;;;;1.80;0.90;;;;;;;;;;5014953;28;20440;-79
2023/05/11 10:13:26;;;;;;;3.33;0.90;;;;;;;;;;5034195;28;20602;-79
2023/05/11 10:15:51;;;;;;;2.20;0.80;;;;;;;;;;5035641;28;20033;-80
2023/05/11 10:18:17;;;;;;;2.13;0.80;;;;;;;;;;5018671;28;20037;-80
2023/05/11 10:20:43;;;;;;;2.40;1.00;;;;;;;;;;5017121;28;20124;-80
2023/05/11 10:23:10;;;;;;;3.23;1.00;;;;;;;;;;5034922;28;20108;-79
2023/05/11 10:25:37;;;;;;;4.57;0.88;;;;;;;;;;5050207;28;20304;-79
2023/05/11 10:28:02;;;;;;;1.85;0.90;;;;;;;;;;5020298;28;20069;-80
2023/05/11 10:30:32;;;;;;;2.92;0.90;;;;;;;;;;5033748;28;20480;-79
2023/05/11 10:32:59;;;;;;;1.90;0.98;;;;;;;;;;5034713;28;20021;-79
2023/05/11 10:35:25;;;;;;;2.63;1.08;;;;;;;;;;5033487;28;20057;-79
2023/05/11 10:37:51;;;;;;;1.70;0.95;;;;;;;;;;5031766;28;20571;-79
2023/05/11 10:40:16;;;;;;;4.15;1.00;;;;;;;;;;5031253;28;20124;-80
2023/05/11 10:42:50;;;;;;;2.97;0.80;;;;;;;;;;5033569;28;20032;-78
2023/05/11 10:45:20;;;;;;;1.75;0.88;;;;;;;;;;5029857;28;20037;-80
2023/05/11 10:47:54;;;;;;;1.60;0.80;;;;;;;;;;5033116;28;20038;-79
2023/05/11 10:50:40;;;;;;;2.15;1.00;;;;;;;;;;5034222;28;20045;-79
2023/05/11 10:53:36;;;;;;;2.63;1.10;;;;;;;;;;5033111;28;20504;-79
2023/05/11 10:56:08;;;;;;;1.95;0.90;;;;;;;;;;5034870;28;20037;-79
2023/05/11 10:58:59;;;;;;;2.22;0.93;;;;;;;;;;5041616;28;20038;-80
2023/05/11 11:01:42;;;;;;;1.70;0.98;;;;;;;;;;5033684;28;20142;-80
2023/05/11 11:04:09;;;;;;;2.38;0.95;;;;;;;;;;5034702;28;20126;-78
2023/05/11 11:06:42;;;;;;;2.72;0.90;;;;;;;;;;5035102;28;20488;-80
2023/05/11 11:09:14;;;;;;;1.70;0.77;;;;;;;;;;5033104;28;20068;-78
2023/05/11 11:11:44;;;;;;;2.17;1.13;;;;;;;;;;5034866;28;20033;-79
2023/05/11 11:14:11;;;;;;;2.08;1.00;;;;;;;;;;5033620;28;20434;-78
2023/05/11 11:16:37;;;;;;;3.35;1.40;;;;;;;;;;5033065;28;20568;-80
2023/05/11 11:19:28;;;;;;;3.15;1.20;;;;;;;;;;5031510;28;20057;-80
2023/05/11 11:21:54;;;;;;;2.47;1.20;;;;;;;;;;5031994;28;20038;-80
2023/05/11 11:24:37;;;;;;;3.05;1.27;;;;;;;;;;5033555;28;20432;-80
2023/05/11 11:27:07;;;;;;;3.53;1.02;;;;;;;;;;5033065;28;20790;-80
2023/05/11 11:29:36;;;;;;;3.20;1.20;;;;;;;;;;5032789;28;20036;-80
2023/05/11 11:32:20;;;;;;;2.72;0.93;;;;;;;;;;5030224;28;20041;-79
2023/05/11 11:34:46;;;;;;;3.50;1.48;;;;;;;;;;5031883;28;20508;-79
2023/05/11 11:37:13;;;;;;;2.03;0.95;;;;;;;;;;5040560;28;20045;-79
2023/05/11 11:39:42;;;;;;;2.85;1.13;;;;;;;;;;5031069;28;20029;-79
2023/05/11 11:42:09;;;;;;;3.08;1.10;;;;;;;;;;5033714;28;20033;-79
2023/05/11 11:44:35;;;;;;;2.00;1.02;;;;;;;;;;5034723;28;20511;-80
2023/05/11 11:47:20;;;;;;;3.67;1.20;;;;;;;;;;5041170;28;20035;-79
2023/05/11 11:49:47;;;;;;;1.90;0.90;;;;;;;;;;5015385;28;20500;-80
2023/05/11 11:52:33;;;;;;;1.98;1.02;;;;;;;;;;5032258;28;20537;-79
2023/05/11 11:54:59;;;;;;;3.40;1.08;;;;;;;;;;5031080;28;20080;-80
2023/05/11 11:57:33;;;;;;;2.92;0.90;;;;;;;;;;5022895;28;20036;-79
2023/05/11 12:00:00;;;;;;;2.30;0.90;;;;;;;;;;5039977;28;20040;-80
2023/05/11 12:02:26;;;;;;;2.30;0.85;;;;;;;;;;5040949;28;20045;-79
2023/05/11 12:04:56;;;;;;;1.90;0.90;;;;;;;;;;5047170;28;20041;-79
2023/05/11 12:07:24;;;;;;;1.88;0.85;;;;;;;;;;5034607;28;20045;-79
2023/05/11 12:09:51;;;;;;;3.05;0.90;;;;;;;;;;5034453;28;20662;-79
2023/05/11 12:12:18;;;;;;;3.63;1.33;;;;;;;;;;5028104;28;20094;-79
2023/05/11 12:14:47;;;;;;;3.45;1.13;;;;;;;;;;5030435;28;20765;-79
2023/05/11 12:17:15;;;;;;;2.35;1.02;;;;;;;;;;5034756;28;20473;-79
2023/05/11 12:19:41;;;;;;;;;;;;;;;;;;5032186;28;20033;-78
2023/05/11 12:22:06;;;;;;;3.60;1.00;;;;;;;;;;5035033;28;19916;-79
2023/05/11 12:24:32;;;;;;;2.67;1.00;;;;;;;;;;5032946;28;20091;-78
2023/05/11 12:26:57;;;;;;;3.45;1.00;;;;;;;;;;5031711;28;20455;-78
2023/05/11 12:29:23;;;;;;;2.13;0.95;;;;;;;;;;5034374;28;20393;-79
2023/05/11 12:31:48;;;;;;;2.13;0.90;;;;;;;;;;5033374;28;20029;-79
2023/05/11 12:34:19;;;;;;;1.90;0.90;;;;;;;;;;5032876;28;20132;-78
2023/05/11 12:36:46;;;;;;;1.88;0.80;;;;;;;;;;5035132;28;20040;-78
2023/05/11 12:39:24;;;;;;;2.60;1.20;;;;;;;;;;5033474;28;20044;-78
2023/05/11 12:41:51;;;;;;;2.17;1.00;;;;;;;;;;5033343;28;20127;-79
2023/05/11 12:44:18;;;;;;;3.40;1.08;;;;;;;;;;5032951;28;20037;-79
2023/05/11 12:46:45;;;;;;;2.47;1.00;;;;;;;;;;5031000;28;20057;-79
2023/05/11 12:49:12;;;;;;;3.10;1.00;;;;;;;;;;5018221;28;20045;-78
2023/05/11 12:51:58;;;;;;;2.05;0.90;;;;;;;;;;5019892;28;20040;-79
2023/05/11 12:54:34;;;;;;;4.78;1.00;;;;;;;;;;5006181;28;20117;-79
2023/05/11 12:57:01;;;;;;;4.05;0.98;;;;;;;;;;5028538;28;20151;-79
2023/05/11 12:59:29;;;;;;;4.95;1.35;;;;;;;;;;5022091;28;20071;-79
2023/05/11 13:01:54;;;;;;;;;;;;;;;;;;5032170;28;20040;-79
2023/05/11 13:04:29;;;;;;;2.92;0.90;;;;;;;;;;5021421;28;19917;-79
2023/05/11 13:06:55;;;;;;;2.20;0.90;;;;;;;;;;5034438;28;20037;-78
2023/05/11 13:09:22;;;;;;;4.50;1.15;;;;;;;;;;5033807;28;20706;-79
2023/05/11 13:11:48;;;;;;;;;;;;;;;;;;5035567;28;20091;-79
2023/05/11 13:14:16;;;;;;;2.63;1.10;;;;;;;;;;5036504;28;21053;-78
2023/05/11 13:16:51;;;;;;;4.00;1.20;;;;;;;;;;5030923;28;20272;-79
2023/05/11 13:19:27;;;;;;;2.13;1.00;;;;;;;;;;5015720;28;20444;-79
2023/05/11 13:21:52;;;;;;;2.35;1.05;;;;;;;;;;5018765;28;20751;-79
2023/05/11 13:24:26;;;;;;;2.30;0.80;;;;;;;;;;5012864;28;20045;-80
2023/05/11 13:26:52;;;;;;;3.33;1.17;;;;;;;;;;5019614;28;20497;-80
2023/05/11 13:29:18;;;;;;;2.03;1.00;;;;;;;;;;5024146;28;20465;-79
2023/05/11 13:31:48;;;;;;;1.85;0.93;;;;;;;;;;5026032;28;20033;-79
2023/05/11 13:34:14;;;;;;;2.28;1.02;;;;;;;;;;5018109;28;20033;-78
2023/05/11 13:36:39;;;;;;;2.47;0.90;;;;;;;;;;5032033;28;20041;-78
2023/05/11 13:39:05;;;;;;;3.35;1.10;;;;;;;;;;5034657;28;20114;-79
2023/05/11 13:41:31;;;;;;;2.42;1.08;;;;;;;;;;5035805;28;20155;-78
2023/05/11 13:43:56;;;;;;;2.53;1.20;;;;;;;;;;5002679;28;20434;-80
2023/05/11 13:46:22;;;;;;;2.38;1.00;;;;;;;;;;5026590;28;20044;-79
2023/05/11 13:48:47;;;;;;;3.05;1.23;;;;;;;;;;5032604;28;20048;-79
2023/05/11 13:51:13;;;;;;;4.50;1.20;;;;;;;;;;5025952;28;20033;-79
2023/05/11 13:53:38;;;;;;;2.13;1.10;;;;;;;;;;5037919;28;20047;-79
2023/05/11 13:56:04;;;;;;;2.67;1.13;;;;;;;;;;5026958;28;20090;-79
2023/05/11 13:58:29;;;;;;;2.60;1.10;;;;;;;;;;5017491;28;20040;-79
2023/05/11 14:00:55;;;;;;;2.88;1.30;;;;;;;;;;5041670;28;20060;-79
2023/05/11 14:03:22;;;;;;;2.78;1.25;;;;;;;;;;5036668;28;20498;-79
2023/05/11 14:05:48;;;;;;;2.08;1.08;;;;;;;;;;5034789;28;20026;-78
2023/05/11 14:08:13;;;;;;;2.75;1.10;;;;;;;;;;5037310;28;20373;-78
2023/05/11 14:10:39;;;;;;;3.30;0.90;;;;;;;;;;5032897;28;20443;-78
2023/05/11 14:13:05;;;;;;;2.30;1.02;;;;;;;;;;5023632;28;20438;-78
2023/05/11 14:15:31;;;;;;;2.03;1.00;;;;;;;;;;5035198;28;20034;-78
2023/05/11 14:17:57;;;;;;;2.33;1.13;;;;;;;;;;5033613;28;20401;-75
2023/05/11 14:20:22;;;;;;;2.47;1.02;;;;;;;;;;5036512;28;20036;-75
2023/05/11 14:22:47;;;;;;;2.70;1.15;;;;;;;;;;5034037;28;20029;-74
2023/05/11 14:25:13;;;;;;;3.08;1.00;;;;;;;;;;5032975;28;20128;-74
2023/05/11 14:27:39;;;;;;;1.77;0.90;;;;;;;;;;5032432;28;20465;-77
2023/05/11 14:30:05;;;;;;;2.05;0.85;;;;;;;;;;5016330;28;20382;-75
2023/05/11 14:32:31;;;;;;;2.38;1.00;;;;;;;;;;5032405;28;20032;-74
2023/05/11 14:34:56;;;;;;;2.35;1.10;;;;;;;;;;5034555;28;20033;-74
2023/05/11 14:37:22;;;;;;;1.98;0.90;;;;;;;;;;5030191;28;20068;-74
2023/05/11 14:39:47;;;;;;;2.30;1.00;;;;;;;;;;5033431;28;20354;-74
2023/05/11 14:42:13;;;;;;;2.67;1.10;;;;;;;;;;5033873;28;20565;-74
2023/05/11 14:44:38;;;;;;;5.25;1.00;;;;;;;;;;5036829;28;20037;-74